createdAt,value
2018-12-04T00:00:39.544Z,9.40
2018-12-04T00:03:05.731Z,9.40
2018-12-04T00:05:32.025Z,9.40
2018-12-04T00:07:58.214Z,9.40
2018-12-04T00:10:24.419Z,9.40
2018-12-04T00:12:50.526Z,9.30
2018-12-04T00:15:16.699Z,9.30
2018-12-04T00:17:43.029Z,9.30
2018-12-04T00:20:09.379Z,9.30
2018-12-04T00:22:35.465Z,9.30
2018-12-04T00:25:01.613Z,9.20
2018-12-04T00:27:27.711Z,9.30
2018-12-04T00:29:53.848Z,9.40
2018-12-04T00:32:19.980Z,9.50
2018-12-04T00:34:46.115Z,9.50
2018-12-04T00:37:12.270Z,9.60
2018-12-04T00:39:38.632Z,9.60
2018-12-04T00:42:04.936Z,9.60
2018-12-04T00:44:31.008Z,9.70
2018-12-04T00:46:57.200Z,9.80
2018-12-04T00:49:23.374Z,9.80
2018-12-04T00:51:49.500Z,9.80
2018-12-04T00:54:15.644Z,9.80
2018-12-04T00:56:41.811Z,9.80
2018-12-04T00:59:08.092Z,9.80
2018-12-04T01:01:34.314Z,9.80
2018-12-04T01:04:00.465Z,9.80
2018-12-04T01:06:26.584Z,9.70
2018-12-04T01:08:52.756Z,9.80
2018-12-04T01:11:18.937Z,9.80
2018-12-04T01:13:45.104Z,9.70
2018-12-04T01:16:11.357Z,9.70
2018-12-04T01:18:37.508Z,9.70
2018-12-04T01:21:03.638Z,9.70
2018-12-04T01:23:29.880Z,9.80
2018-12-04T01:25:56.042Z,9.80
2018-12-04T01:28:22.322Z,9.80
2018-12-04T01:30:48.446Z,9.80
2018-12-04T01:33:14.557Z,9.80
2018-12-04T01:35:40.749Z,9.80
2018-12-04T01:38:06.878Z,9.80
2018-12-04T01:40:32.957Z,9.80
2018-12-04T01:42:59.075Z,9.70
2018-12-04T01:45:25.254Z,9.70
2018-12-04T01:47:51.434Z,9.70
2018-12-04T01:50:17.792Z,9.70
2018-12-04T01:52:43.969Z,9.70
2018-12-04T01:55:10.126Z,9.70
2018-12-04T01:57:36.231Z,9.70
2018-12-04T02:00:02.909Z,9.70
2018-12-04T02:02:29.081Z,9.70
2018-12-04T02:04:55.232Z,9.70
2018-12-04T02:07:21.347Z,9.80
2018-12-04T02:09:47.505Z,9.70
2018-12-04T02:12:13.691Z,9.70
2018-12-04T02:14:39.821Z,9.70
2018-12-04T02:17:06.005Z,9.70
2018-12-04T02:19:32.171Z,9.70
2018-12-04T02:21:58.394Z,9.70
2018-12-04T02:24:24.561Z,9.70
2018-12-04T02:26:50.994Z,9.70
2018-12-04T02:29:17.184Z,9.70
2018-12-04T02:31:43.373Z,9.70
2018-12-04T02:34:09.634Z,9.70
2018-12-04T02:36:35.748Z,9.70
2018-12-04T02:39:02.611Z,9.70
2018-12-04T02:41:28.939Z,9.80
2018-12-04T02:43:55.177Z,9.80
2018-12-04T02:46:21.497Z,9.80
2018-12-04T02:48:47.632Z,9.80
2018-12-04T02:51:13.852Z,9.80
2018-12-04T02:53:40.018Z,9.70
2018-12-04T02:56:06.120Z,9.80
2018-12-04T02:58:32.304Z,9.80
2018-12-04T03:00:58.554Z,9.80
2018-12-04T03:03:24.886Z,9.80
2018-12-04T03:05:51.023Z,9.80
2018-12-04T03:08:17.172Z,9.70
2018-12-04T03:10:43.389Z,9.80
2018-12-04T03:13:09.595Z,9.70
2018-12-04T03:15:35.959Z,9.80
2018-12-04T03:18:02.157Z,9.70
2018-12-04T03:20:28.314Z,9.70
2018-12-04T03:22:54.465Z,9.80
2018-12-04T03:25:20.605Z,9.80
2018-12-04T03:27:46.765Z,9.80
2018-12-04T03:30:13.091Z,9.90
2018-12-04T03:32:39.273Z,9.90
2018-12-04T03:35:05.672Z,9.90
2018-12-04T03:37:31.778Z,9.80
2018-12-04T03:39:57.925Z,9.90
2018-12-04T03:42:24.036Z,9.90
2018-12-04T03:44:50.267Z,9.90
2018-12-04T03:47:16.421Z,9.90
2018-12-04T03:49:42.624Z,9.90
2018-12-04T03:52:08.821Z,9.90
2018-12-04T03:54:35.103Z,9.90
2018-12-04T03:57:01.257Z,9.90
2018-12-04T03:59:27.456Z,9.90
2018-12-04T04:01:53.947Z,9.90
2018-12-04T04:04:20.103Z,10.00
2018-12-04T04:06:46.328Z,10.00
2018-12-04T04:09:12.501Z,10.00
2018-12-04T04:11:38.703Z,10.00
2018-12-04T04:14:04.891Z,10.00
2018-12-04T04:16:31.107Z,10.00
2018-12-04T04:18:57.256Z,10.00
2018-12-04T04:21:23.467Z,10.00
2018-12-04T04:23:49.746Z,10.00
2018-12-04T04:26:15.879Z,10.00
2018-12-04T04:28:42.023Z,10.00
2018-12-04T04:31:08.178Z,10.00
2018-12-04T04:33:34.367Z,10.00
2018-12-04T04:36:00.531Z,10.00
2018-12-04T04:38:26.757Z,10.00
2018-12-04T04:40:52.954Z,9.90
2018-12-04T04:43:19.085Z,9.90
2018-12-04T04:45:45.191Z,9.90
2018-12-04T04:48:11.395Z,10.00
2018-12-04T04:50:37.503Z,10.00
2018-12-04T04:53:03.674Z,10.00
2018-12-04T04:55:29.845Z,10.00
2018-12-04T04:57:55.993Z,10.00
2018-12-04T05:00:22.300Z,9.90
2018-12-04T05:02:48.406Z,10.00
2018-12-04T05:05:14.648Z,10.00
2018-12-04T05:07:40.802Z,9.90
2018-12-04T05:10:07.281Z,10.00
2018-12-04T05:12:33.431Z,10.00
2018-12-04T05:14:59.619Z,9.90
2018-12-04T05:17:25.794Z,9.90
2018-12-04T05:19:52.018Z,9.90
2018-12-04T05:22:18.161Z,9.90
2018-12-04T05:24:44.322Z,9.90
2018-12-04T05:27:10.509Z,9.90
2018-12-04T05:29:36.634Z,9.90
2018-12-04T05:32:03.860Z,9.90
2018-12-04T05:34:29.967Z,9.90
2018-12-04T05:36:56.153Z,9.90
2018-12-04T05:39:22.274Z,9.90
2018-12-04T05:41:48.373Z,9.90
2018-12-04T05:44:14.512Z,9.80
2018-12-04T05:46:40.727Z,9.80
2018-12-04T05:49:06.919Z,9.90
2018-12-04T05:51:33.131Z,9.90
2018-12-04T05:53:59.377Z,9.90
2018-12-04T05:56:25.638Z,9.90
2018-12-04T05:58:51.835Z,9.80
2018-12-04T06:01:18.099Z,9.90
2018-12-04T06:03:44.272Z,10.00
2018-12-04T06:06:10.615Z,9.90
2018-12-04T06:08:36.807Z,9.90
2018-12-04T06:11:02.976Z,9.90
2018-12-04T06:13:29.081Z,9.90
2018-12-04T06:15:55.292Z,9.90
2018-12-04T06:18:21.487Z,9.80
2018-12-04T06:20:47.593Z,9.80
2018-12-04T06:23:13.787Z,9.80
2018-12-04T06:25:40.064Z,9.80
2018-12-04T06:28:06.255Z,9.80
2018-12-04T06:30:32.381Z,9.80
2018-12-04T06:32:58.542Z,9.80
2018-12-04T06:35:24.940Z,9.80
2018-12-04T06:37:51.101Z,9.80
2018-12-04T06:40:17.331Z,9.70
2018-12-04T06:42:43.669Z,9.70
2018-12-04T06:45:10.012Z,9.70
2018-12-04T06:47:36.311Z,9.60
2018-12-04T06:50:05.972Z,9.60
2018-12-04T06:52:32.226Z,9.60
2018-12-04T06:54:58.447Z,9.50
2018-12-04T06:57:24.688Z,9.60
2018-12-04T06:59:50.838Z,9.60
2018-12-04T07:02:17.043Z,9.50
2018-12-04T07:04:43.179Z,9.40
2018-12-04T07:07:09.297Z,9.30
2018-12-04T07:09:35.449Z,9.30
2018-12-04T07:12:02.634Z,9.30
2018-12-04T07:14:28.925Z,9.30
2018-12-04T07:16:55.075Z,9.40
2018-12-04T07:19:21.421Z,9.30
2018-12-04T07:21:47.617Z,9.20
2018-12-04T07:24:13.814Z,9.20
2018-12-04T07:26:40.026Z,9.30
2018-12-04T07:29:06.149Z,9.30
2018-12-04T07:31:32.282Z,9.20
2018-12-04T07:33:58.651Z,9.20
2018-12-04T07:36:24.915Z,9.20
2018-12-04T07:38:51.421Z,9.20
2018-12-04T07:41:17.839Z,9.20
2018-12-04T07:43:43.974Z,9.20
2018-12-04T07:46:10.075Z,9.40
2018-12-04T07:48:36.271Z,9.80
2018-12-04T07:51:02.549Z,9.90
2018-12-04T07:53:28.724Z,9.80
2018-12-04T07:55:54.825Z,9.70
2018-12-04T07:58:20.928Z,9.70
2018-12-04T08:00:47.166Z,9.70
2018-12-04T08:03:13.327Z,9.60
2018-12-04T08:05:39.428Z,9.50
2018-12-04T08:08:05.575Z,9.40
2018-12-04T08:10:31.828Z,9.40
2018-12-04T08:12:58.022Z,9.30
2018-12-04T08:15:24.185Z,9.20
2018-12-04T08:17:50.500Z,9.10
2018-12-04T08:20:16.667Z,9.10
2018-12-04T08:22:42.797Z,9.00
2018-12-04T08:25:08.953Z,9.00
2018-12-04T08:27:35.112Z,8.90
2018-12-04T08:30:01.534Z,8.90
2018-12-04T08:32:27.754Z,8.90
2018-12-04T08:34:53.853Z,8.80
2018-12-04T08:37:20.184Z,8.80
2018-12-04T08:39:46.327Z,8.80
2018-12-04T08:42:12.486Z,8.80
2018-12-04T08:44:38.574Z,8.80
2018-12-04T08:47:04.751Z,8.90
2018-12-04T08:49:30.922Z,8.90
2018-12-04T08:51:57.046Z,8.90
2018-12-04T08:54:23.197Z,8.90
2018-12-04T08:56:49.372Z,9.00
2018-12-04T08:59:15.552Z,9.00
2018-12-04T09:01:41.654Z,9.10
2018-12-04T09:04:07.852Z,9.10
2018-12-04T09:06:34.926Z,9.20
2018-12-04T09:09:01.154Z,9.10
2018-12-04T09:11:27.325Z,9.10
2018-12-04T09:13:53.468Z,9.10
2018-12-04T09:16:23.392Z,9.10
2018-12-04T09:18:47.947Z,9.00
2018-12-04T09:21:14.243Z,9.00
2018-12-04T09:23:40.599Z,9.00
2018-12-04T09:26:06.848Z,8.90
2018-12-04T09:28:33.556Z,8.90
2018-12-04T09:30:59.769Z,8.90
2018-12-04T09:33:25.942Z,8.90
2018-12-04T09:35:52.121Z,8.90
2018-12-04T09:38:18.326Z,8.90
2018-12-04T09:40:44.853Z,8.90
2018-12-04T09:43:11.002Z,8.90
2018-12-04T09:45:37.188Z,8.90
2018-12-04T09:48:03.473Z,9.00
2018-12-04T09:50:29.670Z,9.00
2018-12-04T09:52:55.791Z,9.00
2018-12-04T09:55:21.978Z,9.10
2018-12-04T09:57:48.088Z,9.00
2018-12-04T10:00:14.235Z,9.00
2018-12-04T10:02:40.511Z,9.00
2018-12-04T10:05:06.747Z,9.00
2018-12-04T10:07:33.012Z,9.00
2018-12-04T10:10:00.757Z,9.10
2018-12-04T10:12:27.293Z,9.00
2018-12-04T10:14:53.485Z,9.20
2018-12-04T10:17:19.677Z,9.10
2018-12-04T10:19:45.932Z,9.00
2018-12-04T10:22:12.232Z,8.90
2018-12-04T10:24:38.394Z,8.90
2018-12-04T10:27:04.577Z,8.90
2018-12-04T10:29:30.727Z,9.10
2018-12-04T10:31:56.864Z,9.50
2018-12-04T10:34:23.114Z,9.60
2018-12-04T10:36:49.366Z,9.60
2018-12-04T10:39:15.476Z,9.50
2018-12-04T10:41:41.623Z,9.30
2018-12-04T10:44:07.812Z,9.20
2018-12-04T10:46:33.936Z,9.30
2018-12-04T10:49:00.082Z,9.20
2018-12-04T10:51:26.240Z,9.10
2018-12-04T10:53:52.546Z,9.20
2018-12-04T10:56:18.788Z,9.20
2018-12-04T10:58:44.999Z,9.20
2018-12-04T11:01:29.124Z,9.10
2018-12-04T11:03:55.342Z,9.20
2018-12-04T11:06:21.509Z,9.30
2018-12-04T11:08:47.628Z,9.30
2018-12-04T11:11:13.746Z,9.50
2018-12-04T11:13:39.872Z,9.60
2018-12-04T11:16:06.076Z,9.60
2018-12-04T11:18:32.209Z,9.50
2018-12-04T11:20:58.345Z,9.50
2018-12-04T11:23:24.506Z,9.30
2018-12-04T11:25:50.678Z,9.30
2018-12-04T11:28:16.870Z,9.30
2018-12-04T11:30:43.042Z,9.30
2018-12-04T11:33:09.143Z,9.30
2018-12-04T11:35:35.313Z,9.30
2018-12-04T11:38:01.503Z,9.40
2018-12-04T11:40:27.662Z,9.40
2018-12-04T11:42:53.790Z,9.50
2018-12-04T11:45:20.261Z,9.60
2018-12-04T11:47:46.423Z,9.70
2018-12-04T11:50:12.615Z,9.60
2018-12-04T11:52:38.760Z,9.80
2018-12-04T11:55:05.347Z,9.70
2018-12-04T11:57:31.502Z,9.60
2018-12-04T11:59:57.586Z,9.70
2018-12-04T12:02:23.770Z,9.70
2018-12-04T12:04:50.148Z,9.60
2018-12-04T12:07:20.586Z,9.40
2018-12-04T12:09:44.562Z,9.20
2018-12-04T12:12:10.758Z,9.20
2018-12-04T12:14:37.074Z,9.20
2018-12-04T12:17:03.341Z,9.10
2018-12-04T12:19:29.636Z,9.10
2018-12-04T12:21:55.778Z,9.20
2018-12-04T12:24:21.914Z,9.20
2018-12-04T12:26:48.090Z,9.20
2018-12-04T12:29:14.229Z,9.30
2018-12-04T12:31:40.412Z,9.40
2018-12-04T12:34:06.564Z,9.40
2018-12-04T12:36:32.721Z,9.40
2018-12-04T12:38:58.910Z,9.40
2018-12-04T12:41:25.080Z,9.40
2018-12-04T12:43:51.226Z,9.60
2018-12-04T12:46:17.412Z,9.50
2018-12-04T12:48:43.599Z,9.70
2018-12-04T12:51:09.793Z,9.70
2018-12-04T12:53:36.045Z,9.70
2018-12-04T12:56:02.238Z,9.70
2018-12-04T12:58:28.475Z,9.60
2018-12-04T13:00:54.702Z,9.50
2018-12-04T13:03:20.850Z,9.70
2018-12-04T13:05:47.168Z,9.60
2018-12-04T13:08:13.361Z,9.40
2018-12-04T13:10:39.605Z,9.20
2018-12-04T13:13:05.985Z,9.00
2018-12-04T13:15:32.192Z,8.90
2018-12-04T13:17:58.416Z,8.80
2018-12-04T13:20:24.557Z,8.80
2018-12-04T13:22:50.679Z,8.80
2018-12-04T13:25:16.985Z,8.80
2018-12-04T13:27:43.143Z,8.80
2018-12-04T13:30:09.449Z,8.80
2018-12-04T13:32:35.694Z,8.80
2018-12-04T13:35:02.053Z,8.80
2018-12-04T13:37:28.233Z,8.80
2018-12-04T13:39:54.441Z,8.90
2018-12-04T13:42:20.792Z,8.80
2018-12-04T13:44:46.933Z,8.80
2018-12-04T13:47:13.539Z,8.70
2018-12-04T13:49:39.686Z,8.70
2018-12-04T13:52:05.936Z,8.70
2018-12-04T13:54:32.223Z,8.70
2018-12-04T13:56:58.399Z,8.70
2018-12-04T13:59:24.714Z,8.90
2018-12-04T14:01:50.914Z,8.90
2018-12-04T14:04:17.379Z,8.90
2018-12-04T14:06:43.765Z,8.80
2018-12-04T14:09:09.884Z,8.80
2018-12-04T14:11:36.092Z,8.70
2018-12-04T14:14:02.479Z,8.70
2018-12-04T14:16:28.953Z,8.70
2018-12-04T14:18:55.186Z,8.60
2018-12-04T14:21:21.668Z,8.50
2018-12-04T14:23:48.061Z,8.50
2018-12-04T14:26:14.264Z,8.40
2018-12-04T14:28:40.563Z,8.40
2018-12-04T14:31:07.397Z,8.30
2018-12-04T14:33:33.742Z,8.30
2018-12-04T14:36:00.172Z,8.20
2018-12-04T14:38:26.635Z,8.10
2018-12-04T14:40:52.949Z,8.00
2018-12-04T14:43:19.202Z,8.00
2018-12-04T14:45:45.506Z,7.90
2018-12-04T14:48:11.805Z,7.90
2018-12-04T14:50:38.031Z,7.90
2018-12-04T14:53:04.438Z,8.00
2018-12-04T14:55:30.542Z,7.90
2018-12-04T14:57:56.726Z,7.80
2018-12-04T15:00:23.172Z,7.80
2018-12-04T15:02:49.354Z,7.70
2018-12-04T15:05:22.650Z,7.60
2018-12-04T15:07:49.127Z,7.50
2018-12-04T15:10:15.307Z,7.40
2018-12-04T15:12:41.604Z,7.40
2018-12-04T15:15:08.104Z,7.30
2018-12-04T15:17:34.445Z,7.30
2018-12-04T15:20:00.743Z,7.20
2018-12-04T15:22:26.993Z,7.10
2018-12-04T15:24:53.343Z,7.10
2018-12-04T15:27:19.569Z,7.00
2018-12-04T15:29:45.754Z,6.90
2018-12-04T15:32:11.963Z,6.80
2018-12-04T15:34:38.383Z,6.80
2018-12-04T15:37:04.647Z,6.80
2018-12-04T15:39:30.844Z,6.70
2018-12-04T15:41:57.246Z,6.70
2018-12-04T15:44:23.469Z,6.50
2018-12-04T15:46:49.638Z,6.50
2018-12-04T15:49:15.808Z,6.50
2018-12-04T15:51:41.977Z,6.50
2018-12-04T15:54:08.143Z,6.40
2018-12-04T15:56:34.472Z,6.30
2018-12-04T15:59:00.664Z,6.30
2018-12-04T16:01:26.878Z,6.10
2018-12-04T16:03:53.135Z,5.90
2018-12-04T16:06:19.351Z,5.80
2018-12-04T16:08:45.482Z,5.70
2018-12-04T16:11:11.684Z,5.60
2018-12-04T16:13:37.864Z,5.60
2018-12-04T16:16:04.712Z,5.50
2018-12-04T16:18:30.892Z,5.40
2018-12-04T16:20:57.091Z,5.20
2018-12-04T16:23:23.286Z,5.30
2018-12-04T16:25:49.516Z,5.20
2018-12-04T16:28:15.703Z,5.20
2018-12-04T16:30:42.010Z,5.10
2018-12-04T16:33:08.155Z,5.20
2018-12-04T16:35:34.374Z,5.10
2018-12-04T16:38:00.578Z,5.20
2018-12-04T16:40:27.457Z,5.20
2018-12-04T16:42:53.755Z,5.20
2018-12-04T16:45:19.964Z,5.10
2018-12-04T16:47:46.148Z,5.00
2018-12-04T16:50:12.318Z,5.00
2018-12-04T16:52:38.467Z,4.90
2018-12-04T16:55:05.121Z,4.90
2018-12-04T16:57:31.242Z,4.80
2018-12-04T16:59:57.520Z,4.70
2018-12-04T17:02:23.848Z,4.70
2018-12-04T17:04:50.086Z,4.70
2018-12-04T17:07:16.448Z,4.70
2018-12-04T17:09:42.686Z,4.70
2018-12-04T17:12:08.832Z,4.60
2018-12-04T17:14:35.025Z,4.40
2018-12-04T17:17:01.223Z,4.30
2018-12-04T17:19:27.449Z,4.20
2018-12-04T17:21:53.709Z,4.00
2018-12-04T17:24:19.851Z,3.90
2018-12-04T17:26:46.169Z,3.90
2018-12-04T17:29:12.314Z,3.80
2018-12-04T17:31:38.511Z,3.70
2018-12-04T17:34:04.619Z,3.80
2018-12-04T17:36:30.788Z,3.90
2018-12-04T17:38:56.948Z,3.90
2018-12-04T17:41:23.162Z,4.10
2018-12-04T17:43:49.431Z,4.10
2018-12-04T17:46:15.651Z,4.10
2018-12-04T17:48:41.776Z,3.90
2018-12-04T17:51:08.030Z,3.90
2018-12-04T17:53:34.249Z,3.90
2018-12-04T17:56:00.490Z,3.90
2018-12-04T17:58:26.688Z,3.90
2018-12-04T18:00:52.895Z,3.80
2018-12-04T18:03:19.048Z,3.80
2018-12-04T18:05:45.186Z,3.80
2018-12-04T18:08:11.364Z,3.70
2018-12-04T18:10:37.538Z,3.60
2018-12-04T18:13:03.769Z,3.50
2018-12-04T18:15:29.931Z,3.50
2018-12-04T18:17:57.229Z,3.50
2018-12-04T18:20:23.436Z,3.50
2018-12-04T18:22:49.621Z,3.50
2018-12-04T18:25:15.730Z,3.50
2018-12-04T18:27:41.879Z,3.30
2018-12-04T18:30:08.210Z,3.30
2018-12-04T18:32:34.415Z,3.40
2018-12-04T18:35:00.527Z,3.30
2018-12-04T18:37:26.710Z,3.30
2018-12-04T18:39:52.941Z,3.10
2018-12-04T18:42:19.140Z,2.90
2018-12-04T18:44:45.326Z,2.90
2018-12-04T18:47:11.497Z,2.90
2018-12-04T18:49:37.693Z,2.90
2018-12-04T18:52:03.942Z,2.80
2018-12-04T18:54:30.311Z,2.80
2018-12-04T18:56:56.533Z,2.80
2018-12-04T18:59:22.841Z,2.80
2018-12-04T19:01:49.095Z,2.90
2018-12-04T19:04:15.289Z,2.80
2018-12-04T19:06:41.489Z,2.90
2018-12-04T19:09:07.835Z,2.90
2018-12-04T19:11:33.961Z,2.90
2018-12-04T19:14:00.143Z,3.00
2018-12-04T19:16:26.295Z,2.90
2018-12-04T19:18:52.589Z,2.90
2018-12-04T19:21:20.726Z,3.00
2018-12-04T19:23:48.149Z,2.70
2018-12-04T19:26:16.219Z,2.50
2018-12-04T19:28:44.898Z,2.30
2018-12-04T19:31:11.083Z,2.30
2018-12-04T19:33:37.337Z,2.30
2018-12-04T19:36:03.559Z,2.30
2018-12-04T19:38:29.882Z,2.20
2018-12-04T19:40:56.077Z,2.30
2018-12-04T19:43:22.268Z,2.50
2018-12-04T19:45:48.906Z,2.50
2018-12-04T19:48:15.448Z,2.60
2018-12-04T19:50:42.082Z,2.60
2018-12-04T19:53:08.722Z,2.40
2018-12-04T19:55:34.883Z,2.30
2018-12-04T19:58:01.093Z,2.10
2018-12-04T20:00:27.285Z,2.10
2018-12-04T20:02:53.543Z,2.10
2018-12-04T20:05:19.962Z,2.20
2018-12-04T20:07:46.495Z,2.30
2018-12-04T20:10:13.030Z,2.30
2018-12-04T20:12:39.275Z,2.40
2018-12-04T20:15:05.931Z,2.30
2018-12-04T20:17:32.162Z,2.20
2018-12-04T20:19:58.317Z,2.30
2018-12-04T20:22:24.847Z,2.40
2018-12-04T20:24:51.939Z,2.40
2018-12-04T20:27:18.193Z,2.30
2018-12-04T20:29:44.388Z,2.40
2018-12-04T20:32:10.754Z,2.30
2018-12-04T20:34:36.909Z,2.40
2018-12-04T20:37:03.073Z,2.40
2018-12-04T20:39:29.301Z,2.30
2018-12-04T20:41:55.502Z,2.30
2018-12-04T20:44:21.680Z,2.40
2018-12-04T20:46:47.967Z,2.30
2018-12-04T20:49:14.217Z,2.30
2018-12-04T20:51:40.382Z,2.20
2018-12-04T20:54:06.568Z,2.20
2018-12-04T20:56:32.775Z,2.10
2018-12-04T20:58:58.954Z,2.00
2018-12-04T21:01:25.276Z,2.00
2018-12-04T21:03:51.438Z,1.90
2018-12-04T21:06:17.780Z,1.90
2018-12-04T21:08:43.937Z,1.80
2018-12-04T21:11:10.128Z,1.70
2018-12-04T21:13:36.359Z,1.80
2018-12-04T21:16:02.690Z,1.70
2018-12-04T21:18:28.990Z,1.50
2018-12-04T21:20:55.280Z,1.40
2018-12-04T21:23:21.453Z,1.50
2018-12-04T21:25:47.680Z,1.60
2018-12-04T21:28:19.970Z,1.50
2018-12-04T21:30:52.316Z,1.50
2018-12-04T21:33:24.563Z,1.50
2018-12-04T21:35:56.968Z,1.40
2018-12-04T21:38:29.274Z,1.40
2018-12-04T21:40:58.423Z,1.60
2018-12-04T21:43:37.733Z,1.60
2018-12-04T21:46:10.008Z,1.70
2018-12-04T21:48:36.183Z,1.70
2018-12-04T21:51:02.746Z,1.70
2018-12-04T21:53:28.979Z,1.70
2018-12-04T21:55:55.113Z,1.70
2018-12-04T21:58:21.272Z,1.70
2018-12-04T22:00:47.442Z,1.80
2018-12-04T22:03:13.629Z,1.70
2018-12-04T22:05:40.321Z,1.70
2018-12-04T22:08:06.463Z,1.80
2018-12-04T22:10:32.573Z,1.80
2018-12-04T22:12:58.683Z,1.80
2018-12-04T22:15:24.881Z,1.80
2018-12-04T22:17:51.063Z,1.80
2018-12-04T22:20:17.185Z,1.70
2018-12-04T22:22:43.354Z,1.80
2018-12-04T22:25:09.632Z,1.80
2018-12-04T22:27:35.830Z,1.90
2018-12-04T22:30:03.773Z,1.90
2018-12-04T22:32:29.916Z,1.90
2018-12-04T22:34:56.106Z,1.90
2018-12-04T22:37:22.277Z,1.90
2018-12-04T22:39:48.431Z,1.90
2018-12-04T22:42:14.607Z,1.90
2018-12-04T22:44:40.905Z,1.80
2018-12-04T22:47:07.091Z,1.70
2018-12-04T22:49:33.244Z,1.80
2018-12-04T22:51:59.473Z,1.80
2018-12-04T22:54:25.617Z,1.90
2018-12-04T22:56:51.825Z,1.90
2018-12-04T22:59:17.947Z,1.80
2018-12-04T23:01:44.205Z,1.80
2018-12-04T23:04:10.407Z,1.70
2018-12-04T23:06:36.765Z,1.70
2018-12-04T23:09:06.021Z,1.80
2018-12-04T23:11:32.229Z,1.80
2018-12-04T23:13:58.410Z,1.70
2018-12-04T23:16:24.736Z,1.60
2018-12-04T23:18:50.955Z,1.60
2018-12-04T23:21:17.125Z,1.60
2018-12-04T23:23:43.346Z,1.40
2018-12-04T23:26:09.532Z,1.40
2018-12-04T23:28:35.725Z,1.50
2018-12-04T23:31:01.828Z,1.50
2018-12-04T23:33:27.951Z,1.40
2018-12-04T23:35:54.113Z,1.40
2018-12-04T23:38:20.287Z,1.40
2018-12-04T23:40:46.450Z,1.40
2018-12-04T23:43:12.643Z,1.30
2018-12-04T23:45:38.870Z,1.10
2018-12-04T23:48:05.200Z,1.10
2018-12-04T23:50:31.429Z,1.10
2018-12-04T23:52:57.595Z,1.30
2018-12-04T23:55:23.755Z,1.30
2018-12-04T23:57:49.953Z,1.30
